Portada
METAR-TAF:

METAR-TAF

Aeropuertos :

Bucaramanga, Colombia

Aeropuerto Internacional Palonegro

latitud: 07-06N, longitud: 073-12W, altitud: 1189 m

Observación

El informe se hizo hace 25 minutos, a las 22:00 UTC
Viento 4 kt del noroeste
Temperatura 25°C
Humedad 69%
Presión 1011 hPa
Visibilidad 10 km o más
Nubes dispersas a una altura de 1500 ft
Nubes dispersas a una altura de 10000 ft

METAR: SKBG 212200Z 32004KT 9999 SCT015 SCT100 25/19 A2986

Hora: 17:25 (22:25 UTC)

Pronóstico

El informe se hizo hace 5 horas y 25 minutos, a las 17:00 UTC
Pronóstico válido del 21 a las 18 UTC al 22 a las 18 UTC
Viento 5 kt del norte-noroeste
Visibilidad 10 km o más
Escasas nubes a una altura de 1500 ft
Temporalmente
del 22 a las 09 UTC al 22 a las 12 UTC
Visibilidad: 6000 m
Nubes dispersas a una altura de 1000 ft
niebla en las proximidades

TAF: SKBG 211700Z 2118/2218 33005KT 9999 FEW015 TEMPO 2209/2212 6000 VCFG SCT010 TX28/2118Z TN18/2211Z

Observaciones y pronósticos meteorológicos de más de 4000 aeropuertos (mensajes METAR y TAF).

Los puntos amarillos y rojos representan las estaciones disponibles.

Ponga el ratón en el punto deseado para ver el nombre de la estación.

Haga clic para ver las observaciones y los pronósticos meteorológicos.

Para cambiar el mapa : haga clic en los botones verdes con una cruz de color negro para hacer un zoom, en el botón verde con un guión para alejar o en las flechas verdes para mapas adyacentes.


METAR-TAF: